Time;durP1;ratioP1;P1;durP2;ratioP2;P2;SDS_P1;SDS_P2;PMS_P1;PMS_P2;Temp;Humidity;BMP_temperature;BMP_pressure;BME280_temperature;BME280_humidity;BME280_pressure;Samples;Min_cycle;Max_cycle;Signal;HPM_P1;HPM_P2
2022/07/11 00:00:21;;;;;;;4.35;1.15;;;;;;;;;;4917545;29;20062;-69
2022/07/11 00:02:47;;;;;;;3.45;1.23;;;;;;;;;;4917499;29;20048;-70
2022/07/11 00:05:14;;;;;;;2.08;0.90;;;;;;;;;;4917428;29;20048;-70
2022/07/11 00:07:40;;;;;;;2.55;0.73;;;;;;;;;;4917752;29;20052;-70
2022/07/11 00:10:07;;;;;;;2.20;1.00;;;;;;;;;;4917336;29;20059;-71
2022/07/11 00:12:34;;;;;;;2.15;1.25;;;;;;;;;;4917525;29;20056;-69
2022/07/11 00:15:01;;;;;;;4.03;0.90;;;;;;;;;;4917525;29;20059;-69
2022/07/11 00:17:28;;;;;;;2.47;0.80;;;;;;;;;;4917328;29;20516;-70
2022/07/11 00:19:54;;;;;;;2.50;0.80;;;;;;;;;;4917175;29;20067;-69
2022/07/11 00:22:21;;;;;;;2.55;0.70;;;;;;;;;;4917071;29;20048;-69
2022/07/11 00:24:48;;;;;;;1.52;0.63;;;;;;;;;;4917198;29;20051;-70
2022/07/11 00:27:14;;;;;;;1.95;0.80;;;;;;;;;;4916388;29;20078;-69
2022/07/11 00:29:41;;;;;;;1.15;0.60;;;;;;;;;;4916959;29;20056;-69
2022/07/11 00:32:08;;;;;;;4.57;0.88;;;;;;;;;;4916913;29;20048;-70
2022/07/11 00:34:34;;;;;;;2.35;0.95;;;;;;;;;;4916997;29;20404;-67
2022/07/11 00:37:01;;;;;;;1.52;0.95;;;;;;;;;;4918077;29;20056;-67
2022/07/11 00:39:28;;;;;;;3.30;0.98;;;;;;;;;;4917056;29;20052;-71
2022/07/11 00:41:54;;;;;;;0.98;0.70;;;;;;;;;;4916674;29;20056;-69
2022/07/11 00:44:22;;;;;;;1.20;1.10;;;;;;;;;;4916856;29;20574;-69
2022/07/11 00:46:49;;;;;;;1.95;1.00;;;;;;;;;;4916633;29;20063;-69
2022/07/11 00:49:15;;;;;;;3.22;1.00;;;;;;;;;;4916727;29;20055;-69
2022/07/11 00:51:42;;;;;;;1.30;0.90;;;;;;;;;;4915620;29;20518;-70
2022/07/11 00:54:09;;;;;;;2.92;1.05;;;;;;;;;;4915422;29;20059;-68
2022/07/11 00:56:36;;;;;;;3.95;1.30;;;;;;;;;;4899756;29;20067;-69
2022/07/11 00:59:02;;;;;;;0.90;0.80;;;;;;;;;;4916492;29;20052;-69
2022/07/11 01:01:29;;;;;;;1.73;0.93;;;;;;;;;;4916188;29;20056;-69
2022/07/11 01:03:56;;;;;;;3.08;1.30;;;;;;;;;;4915286;29;20062;-69
2022/07/11 01:06:23;;;;;;;2.78;0.93;;;;;;;;;;4916632;29;20056;-70
2022/07/11 01:08:49;;;;;;;0.80;0.80;;;;;;;;;;4916127;29;20044;-69
2022/07/11 01:11:17;;;;;;;2.17;0.88;;;;;;;;;;4916233;29;20397;-69
2022/07/11 01:13:44;;;;;;;1.38;1.00;;;;;;;;;;4916156;29;20521;-69
2022/07/11 01:16:14;;;;;;;1.48;1.17;;;;;;;;;;4916248;29;20131;-69
2022/07/11 01:18:54;;;;;;;1.65;1.00;;;;;;;;;;4916291;29;20052;-69
2022/07/11 01:21:40;;;;;;;2.75;1.40;;;;;;;;;;4916283;29;20134;-70
2022/07/11 01:24:08;;;;;;;2.65;0.90;;;;;;;;;;4915958;29;20060;-69
2022/07/11 01:26:35;;;;;;;3.10;1.00;;;;;;;;;;4916222;29;20068;-69
2022/07/11 01:29:09;;;;;;;2.83;1.08;;;;;;;;;;4916020;29;20056;-70
2022/07/11 01:31:42;;;;;;;2.55;1.88;;;;;;;;;;4916233;29;20052;-69
2022/07/11 01:34:09;;;;;;;3.15;1.40;;;;;;;;;;4914910;29;20056;-69
2022/07/11 01:36:36;;;;;;;2.70;1.27;;;;;;;;;;4916025;29;20055;-69
2022/07/11 01:39:03;;;;;;;3.15;1.33;;;;;;;;;;4914781;29;20060;-69
2022/07/11 01:41:30;;;;;;;2.33;1.33;;;;;;;;;;4915660;29;20060;-70
2022/07/11 01:43:56;;;;;;;2.85;1.80;;;;;;;;;;4915762;29;20059;-69
2022/07/11 01:46:23;;;;;;;4.55;1.77;;;;;;;;;;4915885;29;20070;-69
2022/07/11 01:48:50;;;;;;;5.15;2.28;;;;;;;;;;4915453;29;20500;-70
2022/07/11 01:51:17;;;;;;;3.17;1.90;;;;;;;;;;4915723;29;20098;-70
2022/07/11 01:53:43;;;;;;;3.40;2.08;;;;;;;;;;4915792;29;20063;-69
2022/07/11 01:56:11;;;;;;;5.25;2.00;;;;;;;;;;4914455;29;20056;-70
2022/07/11 01:58:50;;;;;;;6.00;2.17;;;;;;;;;;4915538;29;20048;-69
2022/07/11 02:01:16;;;;;;;5.45;2.25;;;;;;;;;;4915568;29;20055;-70
2022/07/11 02:03:43;;;;;;;6.72;2.08;;;;;;;;;;4915915;29;20048;-69
2022/07/11 02:06:11;;;;;;;4.38;2.15;;;;;;;;;;4915979;29;20135;-69
2022/07/11 02:08:37;;;;;;;3.88;1.95;;;;;;;;;;4915751;29;20058;-69
2022/07/11 02:11:04;;;;;;;4.97;1.98;;;;;;;;;;4915454;29;20056;-70
2022/07/11 02:13:31;;;;;;;5.45;2.45;;;;;;;;;;4915711;29;20051;-69
2022/07/11 02:15:58;;;;;;;6.47;2.00;;;;;;;;;;4915658;29;20067;-69
2022/07/11 02:18:25;;;;;;;4.25;1.60;;;;;;;;;;4914051;29;20063;-70
2022/07/11 02:20:51;;;;;;;3.20;1.60;;;;;;;;;;4915661;29;20052;-69
2022/07/11 02:23:19;;;;;;;2.80;1.67;;;;;;;;;;4914304;29;20131;-69
2022/07/11 02:25:46;;;;;;;6.53;2.33;;;;;;;;;;4915565;29;20103;-69
2022/07/11 02:28:13;;;;;;;5.90;1.90;;;;;;;;;;4915255;29;20056;-71
2022/07/11 02:30:41;;;;;;;3.90;1.65;;;;;;;;;;4914281;29;20048;-69
2022/07/11 02:33:11;;;;;;;3.80;1.73;;;;;;;;;;4915146;29;20052;-69
2022/07/11 02:35:37;;;;;;;2.97;1.45;;;;;;;;;;4915361;29;20059;-69
2022/07/11 02:38:04;;;;;;;3.63;1.50;;;;;;;;;;4914023;29;20059;-69
2022/07/11 02:40:31;;;;;;;5.43;1.85;;;;;;;;;;4915135;29;20524;-70
2022/07/11 02:42:57;;;;;;;2.53;1.45;;;;;;;;;;4918316;29;20157;-70
2022/07/11 02:45:24;;;;;;;4.88;1.52;;;;;;;;;;4920319;29;20056;-70
2022/07/11 02:47:51;;;;;;;3.63;1.45;;;;;;;;;;4919472;29;20056;-70
2022/07/11 02:50:17;;;;;;;4.82;3.20;;;;;;;;;;4921874;29;20111;-70
2022/07/11 02:52:44;;;;;;;4.10;1.35;;;;;;;;;;4924436;29;20048;-70
2022/07/11 02:55:12;;;;;;;3.40;1.40;;;;;;;;;;4922958;29;20052;-70
2022/07/11 02:57:39;;;;;;;2.17;1.73;;;;;;;;;;4923323;29;20140;-70
2022/07/11 03:00:08;;;;;;;5.20;1.75;;;;;;;;;;4922096;29;20066;-72
2022/07/11 03:02:35;;;;;;;3.80;1.50;;;;;;;;;;4922922;29;20061;-70
2022/07/11 03:05:02;;;;;;;2.40;1.55;;;;;;;;;;4921958;29;20072;-72
2022/07/11 03:07:28;;;;;;;2.53;1.73;;;;;;;;;;4922715;29;20063;-70
2022/07/11 03:09:55;;;;;;;2.22;1.40;;;;;;;;;;4923974;29;20052;-70
2022/07/11 03:12:22;;;;;;;2.53;1.40;;;;;;;;;;4923756;29;20059;-70
2022/07/11 03:14:49;;;;;;;2.30;1.30;;;;;;;;;;4922506;29;20048;-69
2022/07/11 03:17:17;;;;;;;2.38;1.42;;;;;;;;;;4924327;29;20135;-71
2022/07/11 03:19:43;;;;;;;3.85;1.50;;;;;;;;;;4922954;29;20052;-70
2022/07/11 03:22:10;;;;;;;2.05;1.17;;;;;;;;;;4924923;29;20052;-71
2022/07/11 03:24:37;;;;;;;2.30;1.35;;;;;;;;;;4923332;29;20087;-69
2022/07/11 03:27:05;;;;;;;2.03;1.45;;;;;;;;;;4918601;29;20052;-69
2022/07/11 03:29:38;;;;;;;5.68;2.28;;;;;;;;;;4918425;29;20056;-70
2022/07/11 03:32:06;;;;;;;2.63;1.45;;;;;;;;;;4917347;29;20055;-70
2022/07/11 03:34:33;;;;;;;2.80;1.10;;;;;;;;;;4902701;29;20052;-69
2022/07/11 03:37:00;;;;;;;5.35;1.63;;;;;;;;;;4918982;29;20435;-69
2022/07/11 03:39:27;;;;;;;2.72;1.83;;;;;;;;;;4920334;29;20044;-69
2022/07/11 03:41:54;;;;;;;4.60;1.33;;;;;;;;;;4924326;29;20055;-70
2022/07/11 03:44:21;;;;;;;3.15;1.25;;;;;;;;;;4925820;29;20456;-70
2022/07/11 03:46:48;;;;;;;3.47;1.40;;;;;;;;;;4927712;29;20507;-70
2022/07/11 03:49:15;;;;;;;3.33;1.52;;;;;;;;;;4924865;29;20135;-70
2022/07/11 03:51:42;;;;;;;1.83;1.50;;;;;;;;;;4908556;29;20112;-70
2022/07/11 03:54:09;;;;;;;2.42;1.02;;;;;;;;;;4923435;29;20053;-70
2022/07/11 03:56:35;;;;;;;4.03;1.80;;;;;;;;;;4922340;29;20141;-70
2022/07/11 03:59:02;;;;;;;2.78;1.23;;;;;;;;;;4921867;29;20059;-70
2022/07/11 04:01:29;;;;;;;3.38;1.67;;;;;;;;;;4921447;29;20457;-70
2022/07/11 04:03:56;;;;;;;3.03;1.60;;;;;;;;;;4916994;29;20499;-69
2022/07/11 04:06:23;;;;;;;3.97;1.63;;;;;;;;;;4919031;29;20052;-70
2022/07/11 04:08:49;;;;;;;1.90;1.30;;;;;;;;;;4902149;29;20139;-70
2022/07/11 04:11:16;;;;;;;2.90;1.65;;;;;;;;;;4890158;29;20064;-69
2022/07/11 04:13:43;;;;;;;2.70;1.45;;;;;;;;;;4867292;29;20428;-70
2022/07/11 04:16:10;;;;;;;3.70;1.45;;;;;;;;;;4898056;29;20056;-70
2022/07/11 04:18:37;;;;;;;3.42;1.80;;;;;;;;;;4882330;29;20487;-70
2022/07/11 04:21:04;;;;;;;2.78;1.40;;;;;;;;;;4898004;29;20128;-70
2022/07/11 04:23:35;;;;;;;3.42;1.92;;;;;;;;;;4900378;29;20052;-70
2022/07/11 04:26:02;;;;;;;4.72;2.42;;;;;;;;;;4916501;29;20060;-70
2022/07/11 04:28:28;;;;;;;4.55;1.85;;;;;;;;;;4917800;29;20052;-70
2022/07/11 04:30:55;;;;;;;3.67;1.92;;;;;;;;;;4917067;29;20135;-70
2022/07/11 04:33:22;;;;;;;2.30;1.70;;;;;;;;;;4917266;29;20056;-70
2022/07/11 04:35:49;;;;;;;2.30;1.85;;;;;;;;;;4918549;29;20051;-70
2022/07/11 04:38:21;;;;;;;5.20;2.00;;;;;;;;;;4918804;29;20056;-71
2022/07/11 04:40:48;;;;;;;2.53;1.83;;;;;;;;;;4917809;29;20436;-70
2022/07/11 04:43:15;;;;;;;2.83;1.70;;;;;;;;;;4917076;29;20143;-70
2022/07/11 04:45:42;;;;;;;3.05;1.90;;;;;;;;;;4916598;29;20048;-70
2022/07/11 04:48:09;;;;;;;5.18;1.80;;;;;;;;;;4918174;29;20052;-70
2022/07/11 04:50:35;;;;;;;2.40;1.80;;;;;;;;;;4917374;29;20066;-70
2022/07/11 04:53:02;;;;;;;3.78;1.80;;;;;;;;;;4917583;29;20149;-70
2022/07/11 04:55:29;;;;;;;1.95;1.65;;;;;;;;;;4917305;29;20060;-70
2022/07/11 04:57:56;;;;;;;2.45;1.77;;;;;;;;;;4916853;29;20499;-70
2022/07/11 05:00:23;;;;;;;4.40;1.42;;;;;;;;;;4917231;29;20509;-70
2022/07/11 05:02:50;;;;;;;4.50;2.20;;;;;;;;;;4917143;29;20056;-70
2022/07/11 05:05:16;;;;;;;3.15;1.88;;;;;;;;;;4917438;29;20537;-70
2022/07/11 05:07:43;;;;;;;4.07;2.15;;;;;;;;;;4917742;29;20075;-70
2022/07/11 05:10:10;;;;;;;4.20;1.98;;;;;;;;;;4916865;29;20055;-70
2022/07/11 05:12:37;;;;;;;2.97;2.10;;;;;;;;;;4916142;29;20422;-70
2022/07/11 05:15:04;;;;;;;2.72;1.92;;;;;;;;;;4916752;29;20143;-70
2022/07/11 05:17:31;;;;;;;5.10;2.70;;;;;;;;;;4916995;29;20514;-70
2022/07/11 05:19:58;;;;;;;3.35;2.50;;;;;;;;;;4917898;29;20058;-70
2022/07/11 05:22:24;;;;;;;2.28;2.08;;;;;;;;;;4918614;29;20062;-70
2022/07/11 05:24:51;;;;;;;2.08;1.95;;;;;;;;;;4917584;29;20071;-70
2022/07/11 05:27:18;;;;;;;3.38;2.33;;;;;;;;;;4916511;29;20054;-70
2022/07/11 05:29:44;;;;;;;3.42;2.50;;;;;;;;;;4916133;29;20518;-70
2022/07/11 05:32:11;;;;;;;3.40;1.95;;;;;;;;;;4916353;29;20060;-70
2022/07/11 05:34:38;;;;;;;4.88;2.40;;;;;;;;;;4918237;29;20048;-70
2022/07/11 05:37:05;;;;;;;4.90;2.63;;;;;;;;;;4915356;29;20066;-68
2022/07/11 05:39:32;;;;;;;3.33;2.50;;;;;;;;;;4912705;29;20052;-67
2022/07/11 05:41:58;;;;;;;3.60;2.35;;;;;;;;;;4913970;29;20056;-67
2022/07/11 05:44:25;;;;;;;3.47;2.28;;;;;;;;;;4914030;29;20066;-67
2022/07/11 05:46:52;;;;;;;4.28;2.40;;;;;;;;;;4913907;29;20521;-68
2022/07/11 05:49:18;;;;;;;6.75;2.17;;;;;;;;;;4913805;29;20050;-68
2022/07/11 05:51:45;;;;;;;4.53;2.10;;;;;;;;;;4913717;29;20430;-67
2022/07/11 05:54:12;;;;;;;4.00;2.20;;;;;;;;;;4912767;29;20079;-67
2022/07/11 05:56:39;;;;;;;3.58;2.20;;;;;;;;;;4913880;29;20048;-68
2022/07/11 05:59:05;;;;;;;4.97;2.70;;;;;;;;;;4913756;29;20056;-68
2022/07/11 06:01:32;;;;;;;3.65;3.03;;;;;;;;;;4913723;29;20495;-68
2022/07/11 06:04:02;;;;;;;3.30;2.72;;;;;;;;;;4913233;29;20058;-67
2022/07/11 06:06:29;;;;;;;4.60;2.72;;;;;;;;;;4913886;29;20455;-68
2022/07/11 06:08:56;;;;;;;3.58;2.75;;;;;;;;;;4913595;29;20051;-68
2022/07/11 06:11:23;;;;;;;3.45;2.53;;;;;;;;;;4912483;29;20052;-68
2022/07/11 06:13:50;;;;;;;4.07;2.75;;;;;;;;;;4913821;29;20056;-67
2022/07/11 06:16:19;;;;;;;3.25;2.60;;;;;;;;;;4913401;29;20056;-67
2022/07/11 06:18:46;;;;;;;5.05;2.80;;;;;;;;;;4913166;29;20056;-67
2022/07/11 06:21:13;;;;;;;3.55;2.60;;;;;;;;;;4912406;29;20107;-67
2022/07/11 06:23:42;;;;;;;3.15;2.28;;;;;;;;;;4913904;29;20452;-67
2022/07/11 06:26:11;;;;;;;2.45;2.05;;;;;;;;;;4915606;29;20052;-67
2022/07/11 06:28:40;;;;;;;2.90;2.60;;;;;;;;;;4917517;29;20059;-67
2022/07/11 06:31:07;;;;;;;2.70;2.33;;;;;;;;;;4917017;29;20064;-67
2022/07/11 06:33:37;;;;;;;5.15;2.80;;;;;;;;;;4916906;29;20063;-67
2022/07/11 06:36:04;;;;;;;3.53;2.58;;;;;;;;;;4917372;29;20162;-68
2022/07/11 06:38:32;;;;;;;3.38;2.88;;;;;;;;;;4917003;29;20059;-68
2022/07/11 06:40:58;;;;;;;4.22;2.67;;;;;;;;;;4916937;29;20507;-68
2022/07/11 06:43:25;;;;;;;3.30;2.65;;;;;;;;;;4916993;29;20056;-68
2022/07/11 06:45:52;;;;;;;3.55;2.75;;;;;;;;;;4917299;29;20052;-68
2022/07/11 06:48:20;;;;;;;3.03;2.58;;;;;;;;;;4916936;29;20066;-67
2022/07/11 06:50:48;;;;;;;3.20;2.58;;;;;;;;;;4907135;29;20444;-66
2022/07/11 06:53:15;;;;;;;2.60;2.40;;;;;;;;;;4908733;29;20067;-67
2022/07/11 06:55:41;;;;;;;3.47;2.70;;;;;;;;;;4915539;29;20602;-67
2022/07/11 06:58:08;;;;;;;3.65;2.67;;;;;;;;;;4916121;29;20397;-67
2022/07/11 07:00:51;;;;;;;3.45;2.53;;;;;;;;;;4916294;29;20051;-67
2022/07/11 07:03:17;;;;;;;3.50;2.20;;;;;;;;;;4916443;29;20143;-67
2022/07/11 07:05:46;;;;;;;3.42;2.00;;;;;;;;;;4916732;29;20087;-67
2022/07/11 07:08:13;;;;;;;3.05;2.25;;;;;;;;;;4913397;29;20495;-67
2022/07/11 07:10:40;;;;;;;5.55;3.42;;;;;;;;;;4916950;29;20048;-66
2022/07/11 07:13:07;;;;;;;2.00;1.90;;;;;;;;;;4916781;29;20523;-67
2022/07/11 07:15:33;;;;;;;2.50;1.80;;;;;;;;;;4916832;29;20056;-66
2022/07/11 07:18:00;;;;;;;2.83;1.90;;;;;;;;;;4916125;29;20060;-67
2022/07/11 07:20:29;;;;;;;2.22;2.03;;;;;;;;;;4915815;29;20055;-67
2022/07/11 07:22:56;;;;;;;2.05;1.63;;;;;;;;;;4915832;29;20553;-67
2022/07/11 07:25:23;;;;;;;3.20;1.80;;;;;;;;;;4916067;29;20052;-67
2022/07/11 07:27:50;;;;;;;3.13;1.73;;;;;;;;;;4916095;29;20277;-66
2022/07/11 07:30:16;;;;;;;3.53;2.13;;;;;;;;;;4916609;29;20044;-66
2022/07/11 07:32:43;;;;;;;4.55;2.47;;;;;;;;;;4916333;29;20574;-66
2022/07/11 07:35:10;;;;;;;3.97;2.15;;;;;;;;;;4916855;29;20051;-66
2022/07/11 07:37:36;;;;;;;2.92;1.95;;;;;;;;;;4916284;29;20068;-66
2022/07/11 07:40:04;;;;;;;2.72;1.63;;;;;;;;;;4916866;29;20047;-66
2022/07/11 07:42:30;;;;;;;2.30;1.67;;;;;;;;;;4916344;29;20058;-66
2022/07/11 07:44:57;;;;;;;2.15;1.95;;;;;;;;;;4912814;29;20066;-67
2022/07/11 07:47:24;;;;;;;2.60;1.60;;;;;;;;;;4915924;29;20460;-67
2022/07/11 07:49:50;;;;;;;2.30;1.92;;;;;;;;;;4916851;29;20055;-72
2022/07/11 07:52:17;;;;;;;2.85;1.50;;;;;;;;;;4911815;29;20145;-66
2022/07/11 07:54:47;;;;;;;2.90;1.63;;;;;;;;;;4914210;29;20051;-67
2022/07/11 07:57:13;;;;;;;4.28;1.77;;;;;;;;;;4914673;29;20119;-70
2022/07/11 07:59:40;;;;;;;1.30;1.15;;;;;;;;;;4912960;29;20074;-67
2022/07/11 08:02:07;;;;;;;2.03;1.70;;;;;;;;;;4914536;29;20083;-65
2022/07/11 08:04:34;;;;;;;2.88;1.83;;;;;;;;;;4915273;29;20052;-66
2022/07/11 08:07:01;;;;;;;1.20;1.08;;;;;;;;;;4914615;29;20052;-66
2022/07/11 08:09:28;;;;;;;1.35;0.90;;;;;;;;;;4913523;29;20052;-69
2022/07/11 08:11:55;;;;;;;1.55;1.10;;;;;;;;;;4914225;29;20048;-69
2022/07/11 08:14:22;;;;;;;1.00;0.90;;;;;;;;;;4913762;29;20397;-70
2022/07/11 08:16:49;;;;;;;1.45;1.05;;;;;;;;;;4913959;29;20152;-69
2022/07/11 08:19:16;;;;;;;1.25;0.93;;;;;;;;;;4913867;29;20052;-69
2022/07/11 08:21:42;;;;;;;1.77;0.95;;;;;;;;;;4912151;29;20059;-69
2022/07/11 08:24:09;;;;;;;2.45;1.30;;;;;;;;;;4916069;29;20139;-69
2022/07/11 08:26:36;;;;;;;1.23;1.00;;;;;;;;;;4915865;29;20059;-69
2022/07/11 08:29:03;;;;;;;5.55;1.55;;;;;;;;;;4915862;29;20062;-65
2022/07/11 08:31:30;;;;;;;1.05;0.95;;;;;;;;;;4916119;29;20420;-66
2022/07/11 08:33:58;;;;;;;0.90;0.82;;;;;;;;;;4915696;29;20051;-66
2022/07/11 08:36:27;;;;;;;0.70;0.70;;;;;;;;;;4915925;29;20111;-66
2022/07/11 08:38:54;;;;;;;1.20;1.05;;;;;;;;;;4915705;29;20439;-65
2022/07/11 08:41:21;;;;;;;0.77;0.77;;;;;;;;;;4915316;29;20056;-66
2022/07/11 08:43:48;;;;;;;0.90;0.90;;;;;;;;;;4915907;29;20058;-66
2022/07/11 08:46:15;;;;;;;3.17;1.17;;;;;;;;;;4893381;29;20048;-66
2022/07/11 08:48:42;;;;;;;0.93;0.85;;;;;;;;;;4915096;29;20052;-66
2022/07/11 08:51:09;;;;;;;2.28;1.02;;;;;;;;;;4913538;29;20271;-66
2022/07/11 08:53:44;;;;;;;1.70;1.15;;;;;;;;;;4914683;29;20525;-66
2022/07/11 08:56:16;;;;;;;1.00;0.90;;;;;;;;;;4914617;29;20052;-66
2022/07/11 08:58:45;;;;;;;1.00;0.90;;;;;;;;;;4913512;29;20468;-66
2022/07/11 09:01:25;;;;;;;1.02;0.93;;;;;;;;;;4915082;29;20517;-66
2022/07/11 09:03:51;;;;;;;3.97;1.20;;;;;;;;;;4897138;29;20047;-66
2022/07/11 09:06:18;;;;;;;0.93;0.90;;;;;;;;;;4915029;29;20515;-67
2022/07/11 09:08:45;;;;;;;1.15;1.00;;;;;;;;;;4915034;29;20052;-66
2022/07/11 09:11:12;;;;;;;1.88;1.50;;;;;;;;;;4914905;29;20451;-66
2022/07/11 09:13:38;;;;;;;1.50;1.40;;;;;;;;;;4912982;29;20296;-66
2022/07/11 09:16:07;;;;;;;1.48;1.38;;;;;;;;;;4914927;29;20052;-66
2022/07/11 09:18:36;;;;;;;1.65;1.08;;;;;;;;;;4914758;29;20048;-66
2022/07/11 09:26:45;;;;;;;1.70;1.60;;;;;;;;;;4913197;29;20058;-66
2022/07/11 09:29:14;;;;;;;3.95;1.25;;;;;;;;;;4914525;29;20048;-66
2022/07/11 09:31:42;;;;;;;2.60;1.25;;;;;;;;;;4914173;29;20078;-66
2022/07/11 09:34:11;;;;;;;2.22;1.02;;;;;;;;;;4915088;29;20285;-66
2022/07/11 09:36:38;;;;;;;6.75;1.00;;;;;;;;;;4914611;29;20071;-66
2022/07/11 09:39:07;;;;;;;4.05;1.38;;;;;;;;;;4911406;29;20507;-66
2022/07/11 09:41:34;;;;;;;1.85;1.20;;;;;;;;;;4914397;29;20048;-67
2022/07/11 09:44:18;;;;;;;2.03;1.08;;;;;;;;;;4914217;29;20052;-67
2022/07/11 09:46:47;;;;;;;2.88;1.30;;;;;;;;;;4914094;29;20495;-67
2022/07/11 09:49:15;;;;;;;4.07;0.98;;;;;;;;;;4905979;29;20052;-67
2022/07/11 09:51:42;;;;;;;1.13;0.80;;;;;;;;;;4914071;29;20059;-67
2022/07/11 09:54:10;;;;;;;0.98;0.80;;;;;;;;;;4913739;29;20048;-67
2022/07/11 09:56:41;;;;;;;2.00;1.00;;;;;;;;;;4913325;29;20056;-67
2022/07/11 09:59:23;;;;;;;1.02;0.88;;;;;;;;;;4913922;29;20060;-67
2022/07/11 10:01:50;;;;;;;1.30;0.90;;;;;;;;;;4915133;29;20052;-67
2022/07/11 10:04:17;;;;;;;1.13;0.85;;;;;;;;;;4915729;29;20409;-67
2022/07/11 10:06:44;;;;;;;0.63;0.63;;;;;;;;;;4913594;29;20052;-67
2022/07/11 10:09:11;;;;;;;1.00;0.82;;;;;;;;;;4914198;29;20051;-67
2022/07/11 10:11:38;;;;;;;1.25;0.82;;;;;;;;;;4914944;29;20043;-67
2022/07/11 10:14:04;;;;;;;1.33;0.90;;;;;;;;;;4914314;29;20154;-68
2022/07/11 10:16:48;;;;;;;0.80;0.68;;;;;;;;;;4914472;29;20063;-67
2022/07/11 10:19:28;;;;;;;1.55;0.98;;;;;;;;;;4900481;29;20056;-67
2022/07/11 10:22:07;;;;;;;0.75;0.75;;;;;;;;;;4914149;29;20055;-68
2022/07/11 10:24:38;;;;;;;0.82;0.80;;;;;;;;;;4914510;29;20052;-67
2022/07/11 10:27:07;;;;;;;1.05;1.00;;;;;;;;;;4914158;29;20428;-68
2022/07/11 10:29:39;;;;;;;1.15;0.77;;;;;;;;;;4914069;29;20056;-67
2022/07/11 10:32:10;;;;;;;1.83;1.10;;;;;;;;;;4914323;29;20110;-67
2022/07/11 10:34:40;;;;;;;2.28;0.93;;;;;;;;;;4915657;29;20056;-67
2022/07/11 10:37:07;;;;;;;2.78;0.98;;;;;;;;;;4915007;29;20054;-67
2022/07/11 10:39:36;;;;;;;2.72;1.10;;;;;;;;;;4915119;29;20058;-67
2022/07/11 10:42:04;;;;;;;0.95;0.80;;;;;;;;;;4915090;29;20071;-68
2022/07/11 10:44:51;;;;;;;1.00;0.90;;;;;;;;;;4915294;29;20139;-67
2022/07/11 10:47:36;;;;;;;2.45;0.80;;;;;;;;;;4915113;29;20051;-67
2022/07/11 10:50:23;;;;;;;1.00;0.90;;;;;;;;;;4915049;29;20415;-67
2022/07/11 10:52:50;;;;;;;1.05;0.80;;;;;;;;;;4896374;29;20136;-67
2022/07/11 10:55:40;;;;;;;1.15;0.70;;;;;;;;;;4879346;29;20052;-67
2022/07/11 10:58:25;;;;;;;0.70;0.70;;;;;;;;;;4895182;29;20436;-67
2022/07/11 11:01:09;;;;;;;1.90;0.95;;;;;;;;;;4895101;29;20055;-69
2022/07/11 11:03:36;;;;;;;0.80;0.80;;;;;;;;;;4891505;29;20061;-67
2022/07/11 11:06:03;;;;;;;1.23;1.00;;;;;;;;;;4904963;29;20145;-67
2022/07/11 11:11:23;;;;;;;1.70;0.77;;;;;;;;;;4913359;29;20056;-67
2022/07/11 11:14:20;;;;;;;2.15;0.90;;;;;;;;;;4915220;29;20052;-67
2022/07/11 11:16:47;;;;;;;2.15;1.10;;;;;;;;;;4915909;29;20135;-68
2022/07/11 11:19:48;;;;;;;0.90;0.90;;;;;;;;;;4916054;29;20908;-67
2022/07/11 11:22:16;;;;;;;1.08;0.90;;;;;;;;;;4916084;29;20052;-67
2022/07/11 11:24:43;;;;;;;0.70;0.70;;;;;;;;;;4916516;29;20056;-67
2022/07/11 11:27:31;;;;;;;1.02;0.80;;;;;;;;;;4916236;29;20087;-67
2022/07/11 11:29:57;;;;;;;1.17;1.08;;;;;;;;;;4915609;29;20078;-67
2022/07/11 11:32:32;;;;;;;0.88;0.88;;;;;;;;;;4916274;29;20048;-67
2022/07/11 11:34:59;;;;;;;0.85;0.80;;;;;;;;;;4915736;29;20058;-68
2022/07/11 11:37:25;;;;;;;1.08;1.00;;;;;;;;;;4916238;29;20604;-67
2022/07/11 11:39:59;;;;;;;1.92;0.85;;;;;;;;;;4915953;29;20052;-67
2022/07/11 11:42:28;;;;;;;0.80;0.80;;;;;;;;;;4915662;29;20339;-67
2022/07/11 11:45:00;;;;;;;2.95;0.85;;;;;;;;;;4915967;29;20048;-67
2022/07/11 11:47:31;;;;;;;1.20;1.02;;;;;;;;;;4915581;29;20056;-68
2022/07/11 11:49:57;;;;;;;1.80;0.90;;;;;;;;;;4915109;29;20397;-67
2022/07/11 11:52:24;;;;;;;0.70;0.70;;;;;;;;;;4916008;29;20044;-67
2022/07/11 11:54:52;;;;;;;1.08;0.98;;;;;;;;;;4914262;29;20074;-67
2022/07/11 11:57:24;;;;;;;1.50;1.00;;;;;;;;;;4899617;29;20048;-68
2022/07/11 11:59:52;;;;;;;0.85;0.80;;;;;;;;;;4896601;29;20156;-68
2022/07/11 12:02:28;;;;;;;2.83;1.17;;;;;;;;;;4895585;29;20104;-67
2022/07/11 12:04:57;;;;;;;1.15;1.02;;;;;;;;;;4897462;29;20158;-67
2022/07/11 12:07:28;;;;;;;2.88;1.17;;;;;;;;;;4915907;29;20054;-67
2022/07/11 12:09:55;;;;;;;1.10;1.00;;;;;;;;;;4914108;29;20044;-67
2022/07/11 12:12:43;;;;;;;2.85;1.50;;;;;;;;;;4915492;29;20048;-68
2022/07/11 12:15:31;;;;;;;1.30;1.17;;;;;;;;;;4912469;29;20465;-68
2022/07/11 12:18:04;;;;;;;2.33;1.35;;;;;;;;;;4912753;29;20090;-68
2022/07/11 12:20:38;;;;;;;2.25;1.10;;;;;;;;;;4915286;29;20048;-68
2022/07/11 12:23:09;;;;;;;1.05;0.98;;;;;;;;;;4915213;29;20056;-67
2022/07/11 12:25:47;;;;;;;1.10;1.00;;;;;;;;;;4912936;29;20090;-68
2022/07/11 12:28:14;;;;;;;0.90;0.90;;;;;;;;;;4914086;29;20044;-67
2022/07/11 12:30:41;;;;;;;1.10;1.00;;;;;;;;;;4915816;29;20496;-67
2022/07/11 12:33:12;;;;;;;1.23;1.13;;;;;;;;;;4910121;29;20112;-65
2022/07/11 12:36:03;;;;;;;2.33;1.05;;;;;;;;;;4898249;29;20099;-65
2022/07/11 12:38:52;;;;;;;1.67;1.20;;;;;;;;;;4897492;29;20465;-65
2022/07/11 12:41:19;;;;;;;0.75;0.68;;;;;;;;;;4911020;29;20142;-65
2022/07/11 12:46:34;;;;;;;2.30;1.30;;;;;;;;;;4917031;29;20052;-65
2022/07/11 12:49:05;;;;;;;2.10;1.20;;;;;;;;;;4901993;29;20729;-65
2022/07/11 12:51:34;;;;;;;1.90;1.10;;;;;;;;;;4914453;29;20135;-65
2022/07/11 12:54:02;;;;;;;1.92;1.10;;;;;;;;;;4915007;29;20689;-65
2022/07/11 12:56:29;;;;;;;1.42;1.33;;;;;;;;;;4912075;29;20062;-65
2022/07/11 12:58:56;;;;;;;3.47;1.10;;;;;;;;;;4914776;29;20070;-65
2022/07/11 13:01:22;;;;;;;2.53;1.42;;;;;;;;;;4913696;29;20054;-65
2022/07/11 13:03:49;;;;;;;1.75;1.05;;;;;;;;;;4915134;29;20059;-65
2022/07/11 13:06:16;;;;;;;2.33;1.15;;;;;;;;;;4915090;29;20048;-65
2022/07/11 13:08:46;;;;;;;1.20;0.90;;;;;;;;;;4914633;29;20056;-65
2022/07/11 13:11:14;;;;;;;1.45;1.17;;;;;;;;;;4898502;29;20052;-65
2022/07/11 13:13:42;;;;;;;3.50;1.08;;;;;;;;;;4913273;29;20066;-68
2022/07/11 13:16:10;;;;;;;1.55;1.45;;;;;;;;;;4910703;29;20522;-69
2022/07/11 13:18:37;;;;;;;1.73;1.17;;;;;;;;;;4914289;29;20070;-69
2022/07/11 13:21:07;;;;;;;2.78;1.08;;;;;;;;;;4913877;29;20048;-68
2022/07/11 13:23:35;;;;;;;1.40;1.10;;;;;;;;;;4909980;29;20058;-68
2022/07/11 13:26:02;;;;;;;2.03;1.30;;;;;;;;;;4912080;29;20054;-68
2022/07/11 13:28:29;;;;;;;4.82;1.33;;;;;;;;;;4909789;29;20062;-67
2022/07/11 13:30:57;;;;;;;2.38;1.27;;;;;;;;;;4913588;29;20062;-64
2022/07/11 13:33:42;;;;;;;2.20;1.90;;;;;;;;;;4913997;29;20419;-63
2022/07/11 13:36:09;;;;;;;4.65;1.35;;;;;;;;;;4914013;29;20060;-64
2022/07/11 13:38:36;;;;;;;1.35;1.17;;;;;;;;;;4913223;29;20075;-64
2022/07/11 13:41:03;;;;;;;4.05;1.20;;;;;;;;;;4911343;29;20107;-64
2022/07/11 13:43:30;;;;;;;2.00;1.52;;;;;;;;;;4914852;29;20087;-63
2022/07/11 13:45:57;;;;;;;5.03;1.40;;;;;;;;;;4914159;29;20056;-63
2022/07/11 13:48:23;;;;;;;1.67;1.23;;;;;;;;;;4914553;29;20063;-63
2022/07/11 13:50:50;;;;;;;2.63;1.27;;;;;;;;;;4914041;29;20056;-64
2022/07/11 13:53:18;;;;;;;1.05;1.02;;;;;;;;;;4914321;29;20056;-64
2022/07/11 13:55:44;;;;;;;2.05;1.65;;;;;;;;;;4913800;29;20052;-63
2022/07/11 13:58:27;;;;;;;2.60;1.40;;;;;;;;;;4914270;29;20056;-64
2022/07/11 14:01:00;;;;;;;1.45;1.35;;;;;;;;;;4913221;29;20068;-64
2022/07/11 14:03:27;;;;;;;2.05;1.50;;;;;;;;;;4913984;29;20062;-64
2022/07/11 14:05:54;;;;;;;2.40;1.20;;;;;;;;;;4914088;29;20051;-64
2022/07/11 14:08:20;;;;;;;2.90;1.10;;;;;;;;;;4914265;29;20060;-64
2022/07/11 14:10:47;;;;;;;2.85;1.50;;;;;;;;;;4914070;29;20496;-65
2022/07/11 14:13:14;;;;;;;2.55;1.33;;;;;;;;;;4914034;29;20044;-65
2022/07/11 14:15:42;;;;;;;2.28;1.20;;;;;;;;;;4914518;29;20052;-64
2022/07/11 14:18:08;;;;;;;1.10;1.00;;;;;;;;;;4914562;29;20044;-65
2022/07/11 14:20:35;;;;;;;2.20;1.35;;;;;;;;;;4911150;29;20052;-63
2022/07/11 14:23:02;;;;;;;2.65;1.17;;;;;;;;;;4913630;29;20047;-67
2022/07/11 14:25:29;;;;;;;2.15;1.30;;;;;;;;;;4911133;29;20131;-68
2022/07/11 14:27:55;;;;;;;2.50;1.20;;;;;;;;;;4916291;29;20795;-68
2022/07/11 14:30:22;;;;;;;2.25;1.20;;;;;;;;;;4919390;29;20047;-68
2022/07/11 14:32:51;;;;;;;1.35;1.00;;;;;;;;;;4917324;29;20071;-67
2022/07/11 14:35:17;;;;;;;2.17;1.17;;;;;;;;;;4917978;29;20147;-66
2022/07/11 14:37:44;;;;;;;3.25;1.52;;;;;;;;;;4913334;29;20060;-70
2022/07/11 14:40:14;;;;;;;1.63;1.17;;;;;;;;;;4914972;29;20127;-72
2022/07/11 14:42:54;;;;;;;6.40;1.50;;;;;;;;;;4883312;29;20048;-70
2022/07/11 14:45:22;;;;;;;2.45;1.50;;;;;;;;;;4909688;29;20048;-69
2022/07/11 14:47:50;;;;;;;2.88;1.48;;;;;;;;;;4914912;29;20207;-68
2022/07/11 14:50:18;;;;;;;1.77;1.50;;;;;;;;;;4914367;29;20048;-67
2022/07/11 14:52:45;;;;;;;6.55;1.80;;;;;;;;;;4917265;29;20052;-66
2022/07/11 14:55:12;;;;;;;12.00;2.28;;;;;;;;;;4917362;29;20059;-67
2022/07/11 14:57:39;;;;;;;3.15;1.50;;;;;;;;;;4917379;29;20051;-67
2022/07/11 15:00:13;;;;;;;1.45;1.17;;;;;;;;;;4916267;29;20419;-68
2022/07/11 15:05:25;;;;;;;5.05;1.40;;;;;;;;;;4917535;29;20055;-67